createdAt,value
2023-03-01T00:01:10.799Z,4.06
2023-03-01T00:03:38.431Z,4.08
2023-03-01T00:06:06.515Z,4.05
2023-03-01T00:08:34.146Z,4.04
2023-03-01T00:11:10.891Z,4.01
2023-03-01T00:13:38.021Z,3.90
2023-03-01T00:16:06.864Z,3.89
2023-03-01T00:18:33.835Z,3.89
2023-03-01T00:21:00.871Z,3.87
2023-03-01T00:23:28.390Z,3.85
2023-03-01T00:25:55.333Z,3.83
2023-03-01T00:28:22.383Z,3.82
2023-03-01T00:30:49.187Z,3.78
2023-03-01T00:33:15.998Z,3.80
2023-03-01T00:35:42.850Z,3.85
2023-03-01T00:38:09.561Z,3.84
2023-03-01T00:40:37.492Z,3.74
2023-03-01T00:43:04.895Z,3.73
2023-03-01T00:45:34.410Z,3.77
2023-03-01T00:48:01.103Z,3.80
2023-03-01T00:50:28.407Z,3.81
2023-03-01T00:52:58.125Z,3.77
2023-03-01T00:55:25.045Z,3.88
2023-03-01T00:57:51.787Z,3.85
2023-03-01T01:00:20.120Z,3.79
2023-03-01T01:02:48.785Z,3.76
2023-03-01T01:05:15.990Z,3.72
2023-03-01T01:07:42.727Z,3.67
2023-03-01T01:10:13.796Z,3.67
2023-03-01T01:12:40.462Z,3.69
2023-03-01T01:15:07.687Z,3.67
2023-03-01T01:17:34.750Z,3.64
2023-03-01T01:20:02.317Z,3.70
2023-03-01T01:22:29.915Z,3.58
2023-03-01T01:24:56.551Z,3.63
2023-03-01T01:27:23.266Z,3.64
2023-03-01T01:29:50.022Z,3.56
2023-03-01T01:32:16.699Z,3.55
2023-03-01T01:34:43.638Z,3.56
2023-03-01T01:37:10.252Z,3.58
2023-03-01T01:39:37.022Z,3.57
2023-03-01T01:42:04.001Z,3.57
2023-03-01T01:44:30.975Z,3.42
2023-03-01T01:47:07.300Z,3.43
2023-03-01T01:49:42.815Z,3.48
2023-03-01T01:52:23.229Z,3.49
2023-03-01T01:55:01.332Z,3.51
2023-03-01T01:57:34.013Z,3.42
2023-03-01T02:00:09.108Z,3.48
2023-03-01T02:02:44.137Z,3.44
2023-03-01T02:05:18.004Z,3.40
2023-03-01T02:07:46.156Z,3.46
2023-03-01T02:10:12.803Z,3.44
2023-03-01T02:12:40.504Z,3.34
2023-03-01T02:15:07.482Z,3.39
2023-03-01T02:17:34.893Z,3.39
2023-03-01T02:20:29.278Z,3.38
2023-03-01T02:22:56.263Z,3.39
2023-03-01T02:25:39.223Z,3.37
2023-03-01T02:28:16.295Z,3.31
2023-03-01T02:31:04.151Z,3.36
2023-03-01T02:33:33.837Z,3.33
2023-03-01T02:36:09.718Z,3.26
2023-03-01T02:38:36.386Z,3.22
2023-03-01T02:41:06.130Z,3.24
2023-03-01T02:43:34.061Z,3.22
2023-03-01T02:46:07.703Z,3.24
2023-03-01T02:48:49.951Z,3.18
2023-03-01T02:51:38.617Z,3.14
2023-03-01T02:54:15.029Z,3.12
2023-03-01T02:56:43.691Z,3.10
2023-03-01T02:59:12.488Z,3.10
2023-03-01T03:01:39.217Z,3.08
2023-03-01T03:04:10.852Z,3.05
2023-03-01T03:06:38.608Z,3.00
2023-03-01T03:09:05.913Z,2.96
2023-03-01T03:11:33.355Z,2.92
2023-03-01T03:14:00.047Z,2.94
2023-03-01T03:16:27.056Z,2.95
2023-03-01T03:18:53.706Z,2.91
2023-03-01T03:21:20.460Z,2.87
2023-03-01T03:23:47.083Z,2.77
2023-03-01T03:26:14.374Z,2.76
2023-03-01T03:28:41.207Z,2.78
2023-03-01T03:31:08.959Z,2.85
2023-03-01T03:33:36.047Z,2.80
2023-03-01T03:36:02.877Z,2.76
2023-03-01T03:38:29.484Z,2.76
2023-03-01T03:41:05.207Z,2.73
2023-03-01T03:43:34.323Z,2.71
2023-03-01T03:46:01.913Z,2.70
2023-03-01T03:48:28.649Z,2.65
2023-03-01T03:50:57.010Z,2.50
2023-03-01T03:53:26.127Z,2.51
2023-03-01T03:55:53.824Z,2.55
2023-03-01T03:58:22.483Z,2.56
2023-03-01T04:00:53.272Z,2.63
2023-03-01T04:03:21.212Z,2.62
2023-03-01T04:05:48.446Z,2.64
2023-03-01T04:08:15.093Z,2.59
2023-03-01T04:10:45.418Z,2.63
2023-03-01T04:13:14.966Z,2.71
2023-03-01T04:15:44.023Z,2.70
2023-03-01T04:18:14.383Z,2.71
2023-03-01T04:20:45.871Z,2.71
2023-03-01T04:23:20.974Z,2.70
2023-03-01T04:25:55.003Z,2.70
2023-03-01T04:28:25.488Z,2.69
2023-03-01T04:30:53.736Z,2.71
2023-03-01T04:33:20.560Z,2.72
2023-03-01T04:35:50.350Z,2.71
2023-03-01T04:38:20.872Z,2.64
2023-03-01T04:40:47.590Z,2.64
2023-03-01T04:43:15.570Z,2.67
2023-03-01T04:45:42.656Z,2.64
2023-03-01T04:48:09.626Z,2.60
2023-03-01T04:50:36.884Z,2.63
2023-03-01T04:53:04.124Z,2.59
2023-03-01T04:55:31.251Z,2.55
2023-03-01T04:57:57.888Z,2.52
2023-03-01T05:00:24.981Z,2.49
2023-03-01T05:02:57.615Z,2.47
2023-03-01T05:05:33.326Z,2.50
2023-03-01T05:08:02.709Z,2.53
2023-03-01T05:10:30.754Z,2.55
2023-03-01T05:12:58.514Z,2.54
2023-03-01T05:15:26.834Z,2.56
2023-03-01T05:17:55.405Z,2.62
2023-03-01T05:20:25.865Z,2.64
2023-03-01T05:22:55.901Z,2.65
2023-03-01T05:25:23.344Z,2.63
2023-03-01T05:27:49.967Z,2.66
2023-03-01T05:30:17.609Z,2.67
2023-03-01T05:32:47.614Z,2.67
2023-03-01T05:35:15.897Z,2.64
2023-03-01T05:37:48.263Z,2.67
2023-03-01T05:40:18.991Z,2.63
2023-03-01T05:42:48.580Z,2.61
2023-03-01T05:45:16.563Z,2.66
2023-03-01T05:47:45.069Z,2.64
2023-03-01T05:50:19.921Z,2.65
2023-03-01T05:53:17.185Z,2.68
2023-03-01T05:55:45.163Z,2.71
2023-03-01T05:58:15.866Z,2.68
2023-03-01T06:00:44.187Z,2.55
2023-03-01T06:03:13.614Z,2.58
2023-03-01T06:05:41.484Z,2.63
2023-03-01T06:08:10.257Z,2.68
2023-03-01T06:10:36.961Z,2.63
2023-03-01T06:13:03.739Z,2.70
2023-03-01T06:15:30.419Z,2.71
2023-03-01T06:17:59.701Z,2.69
2023-03-01T06:20:29.054Z,2.78
2023-03-01T06:22:55.976Z,2.77
2023-03-01T06:25:25.479Z,2.78
2023-03-01T06:27:53.484Z,2.82
2023-03-01T06:30:22.613Z,2.90
2023-03-01T06:32:49.932Z,2.94
2023-03-01T06:35:18.909Z,3.04
2023-03-01T06:37:48.180Z,3.09
2023-03-01T06:40:16.279Z,3.12
2023-03-01T06:42:48.035Z,3.22
2023-03-01T06:45:14.676Z,3.29
2023-03-01T06:47:41.354Z,3.42
2023-03-01T06:50:08.780Z,3.45
2023-03-01T06:52:35.552Z,3.58
2023-03-01T06:55:02.439Z,3.74
2023-03-01T06:57:29.460Z,3.85
2023-03-01T06:59:56.378Z,3.96
2023-03-01T07:02:23.925Z,4.22
2023-03-01T07:04:51.928Z,4.34
2023-03-01T07:07:19.307Z,4.48
2023-03-01T07:09:46.751Z,4.66
2023-03-01T07:12:13.484Z,4.81
2023-03-01T07:14:40.153Z,4.90
2023-03-01T07:17:07.396Z,5.17
2023-03-01T07:19:34.040Z,5.40
2023-03-01T07:22:00.767Z,5.70
2023-03-01T07:24:27.622Z,5.99
2023-03-01T07:26:54.642Z,6.35
2023-03-01T07:29:21.463Z,7.29
2023-03-01T07:31:48.217Z,8.30
2023-03-01T07:34:15.072Z,9.23
2023-03-01T07:36:44.020Z,9.61
2023-03-01T07:39:12.054Z,10.37
2023-03-01T07:41:39.004Z,11.27
2023-03-01T07:44:05.842Z,11.99
2023-03-01T07:46:33.349Z,12.87
2023-03-01T07:49:00.212Z,13.04
2023-03-01T07:51:26.900Z,12.75
2023-03-01T07:53:53.589Z,12.05
2023-03-01T07:56:21.464Z,12.27
2023-03-01T07:58:49.896Z,12.77
2023-03-01T08:01:20.690Z,13.10
2023-03-01T08:03:47.722Z,13.38
2023-03-01T08:06:16.369Z,14.97
2023-03-01T08:08:43.379Z,14.30
2023-03-01T08:11:13.573Z,15.22
2023-03-01T08:13:40.458Z,15.01
2023-03-01T08:16:10.634Z,16.00
2023-03-01T08:18:38.778Z,15.90
2023-03-01T08:21:11.432Z,16.07
2023-03-01T08:23:39.158Z,16.39
2023-03-01T08:26:06.859Z,16.71
2023-03-01T08:28:33.807Z,16.67
2023-03-01T08:31:00.588Z,16.71
2023-03-01T08:33:27.325Z,16.92
2023-03-01T08:35:54.082Z,16.59
2023-03-01T08:38:20.753Z,16.73
2023-03-01T08:40:47.761Z,17.54
2023-03-01T08:43:14.401Z,18.21
2023-03-01T08:45:41.077Z,18.36
2023-03-01T08:48:07.847Z,18.88
2023-03-01T08:50:34.457Z,19.83
2023-03-01T08:53:01.086Z,20.06
2023-03-01T08:55:27.737Z,18.96
2023-03-01T08:57:54.430Z,19.41
2023-03-01T09:00:21.727Z,19.93
2023-03-01T09:02:48.351Z,20.37
2023-03-01T09:05:15.018Z,21.35
2023-03-01T09:07:41.629Z,21.26
2023-03-01T09:10:09.076Z,21.34
2023-03-01T09:12:35.735Z,22.08
2023-03-01T09:15:02.387Z,21.60
2023-03-01T09:17:30.428Z,22.19
2023-03-01T09:19:57.060Z,21.83
2023-03-01T09:22:23.854Z,22.15
2023-03-01T09:24:50.541Z,22.54
2023-03-01T09:27:19.684Z,22.29
2023-03-01T09:29:46.682Z,22.77
2023-03-01T09:32:13.392Z,23.24
2023-03-01T09:34:58.719Z,22.96
2023-03-01T09:37:25.421Z,23.85
2023-03-01T09:39:52.033Z,25.20
2023-03-01T09:42:18.794Z,25.29
2023-03-01T09:44:45.395Z,24.39
2023-03-01T09:47:18.029Z,24.91
2023-03-01T09:49:53.564Z,26.39
2023-03-01T09:52:29.209Z,26.72
2023-03-01T09:54:59.519Z,27.33
2023-03-01T09:57:33.764Z,26.59
2023-03-01T10:00:24.259Z,26.47
2023-03-01T10:03:00.770Z,26.10
2023-03-01T10:06:01.473Z,25.00
2023-03-01T10:08:31.925Z,26.48
2023-03-01T10:10:59.724Z,27.11
2023-03-01T10:13:53.803Z,27.79
2023-03-01T10:16:27.892Z,28.03
2023-03-01T10:19:01.301Z,28.57
2023-03-01T10:21:32.466Z,28.55
2023-03-01T10:24:25.835Z,27.41
2023-03-01T10:26:57.596Z,27.48
2023-03-01T10:29:51.389Z,27.65
2023-03-01T10:32:19.641Z,28.67
2023-03-01T10:34:46.318Z,27.93
2023-03-01T10:37:16.259Z,26.73
2023-03-01T10:40:09.112Z,26.93
2023-03-01T10:42:50.407Z,27.91
2023-03-01T10:45:37.474Z,27.62
2023-03-01T10:48:20.409Z,27.51
2023-03-01T10:50:50.112Z,27.36
2023-03-01T10:53:33.866Z,26.79
2023-03-01T10:56:04.681Z,25.83
2023-03-01T10:58:33.175Z,26.34
2023-03-01T11:01:01.295Z,27.40
2023-03-01T11:03:34.108Z,25.96
2023-03-01T11:06:07.538Z,27.31
2023-03-01T11:08:46.293Z,27.63
2023-03-01T11:11:23.882Z,28.13
2023-03-01T11:13:58.427Z,27.08
2023-03-01T11:16:26.299Z,28.04
2023-03-01T11:19:02.482Z,27.95
2023-03-01T11:21:32.884Z,27.66
2023-03-01T11:24:02.577Z,27.92
2023-03-01T11:26:32.398Z,28.79
2023-03-01T11:29:04.587Z,28.21
2023-03-01T11:31:33.078Z,29.57
2023-03-01T11:34:20.700Z,27.50
2023-03-01T11:36:55.955Z,27.05
2023-03-01T11:39:32.233Z,27.33
2023-03-01T11:42:21.292Z,27.71
2023-03-01T11:44:53.535Z,28.06
2023-03-01T11:47:47.981Z,26.86
2023-03-01T11:50:19.623Z,27.87
2023-03-01T11:53:14.691Z,26.93
2023-03-01T11:55:44.123Z,27.24
2023-03-01T11:58:28.811Z,27.19
2023-03-01T12:00:55.404Z,27.02
2023-03-01T12:03:49.756Z,26.60
2023-03-01T12:06:23.818Z,26.48
2023-03-01T12:08:59.261Z,26.66
2023-03-01T12:11:26.143Z,26.50
2023-03-01T12:14:23.043Z,25.75
2023-03-01T12:17:13.028Z,25.87
2023-03-01T12:19:48.048Z,26.66
2023-03-01T12:22:43.052Z,26.30
2023-03-01T12:25:19.727Z,25.81
2023-03-01T12:28:20.816Z,24.02
2023-03-01T12:30:56.516Z,22.85
2023-03-01T12:33:31.802Z,22.26
2023-03-01T12:36:30.041Z,21.12
2023-03-01T12:39:03.980Z,19.76
2023-03-01T12:41:39.223Z,19.33
2023-03-01T12:44:27.788Z,19.53
2023-03-01T12:47:16.117Z,18.21
2023-03-01T12:49:48.887Z,17.45
2023-03-01T12:52:25.311Z,16.99
2023-03-01T12:54:57.011Z,16.29
2023-03-01T12:57:42.143Z,15.41
2023-03-01T13:00:23.011Z,15.04
2023-03-01T13:03:20.485Z,14.77
2023-03-01T13:06:38.161Z,14.46
2023-03-01T13:09:15.135Z,14.11
2023-03-01T13:11:43.971Z,14.01
2023-03-01T13:14:25.831Z,13.89
2023-03-01T13:16:54.269Z,14.04
2023-03-01T13:19:26.265Z,14.10
2023-03-01T13:21:55.571Z,14.27
2023-03-01T13:24:40.275Z,14.31
2023-03-01T13:27:06.898Z,14.29
2023-03-01T13:29:47.772Z,14.36
2023-03-01T13:32:43.389Z,14.48
2023-03-01T13:35:20.428Z,14.47
2023-03-01T13:37:47.724Z,14.10
2023-03-01T13:40:17.828Z,13.94
2023-03-01T13:42:53.685Z,13.88
2023-03-01T13:45:40.465Z,13.74
2023-03-01T13:48:23.105Z,13.27
2023-03-01T13:50:55.624Z,13.23
2023-03-01T13:53:27.370Z,12.75
2023-03-01T13:56:01.454Z,12.67
2023-03-01T13:58:31.469Z,12.61
2023-03-01T14:01:19.639Z,12.60
2023-03-01T14:03:46.404Z,12.50
2023-03-01T14:06:19.761Z,12.33
2023-03-01T14:08:50.437Z,12.09
2023-03-01T14:11:24.762Z,12.21
2023-03-01T14:14:30.062Z,12.24
2023-03-01T14:17:29.391Z,12.42
2023-03-01T14:19:59.368Z,12.48
2023-03-01T14:22:35.469Z,12.53
2023-03-01T14:25:06.370Z,12.60
2023-03-01T14:27:42.870Z,12.26
2023-03-01T14:30:20.294Z,12.37
2023-03-01T14:32:55.713Z,12.25
2023-03-01T14:35:31.561Z,12.47
2023-03-01T14:37:58.562Z,12.65
2023-03-01T14:40:29.002Z,12.78
2023-03-01T14:42:59.408Z,12.84
2023-03-01T14:45:29.017Z,12.83
2023-03-01T14:47:59.565Z,12.86
2023-03-01T14:50:29.178Z,12.83
2023-03-01T14:53:09.012Z,12.90
2023-03-01T14:55:39.675Z,12.77
2023-03-01T14:58:10.375Z,12.76
2023-03-01T15:00:37.721Z,12.65
2023-03-01T15:03:14.217Z,12.55
2023-03-01T15:05:44.099Z,12.34
2023-03-01T15:08:20.381Z,12.45
2023-03-01T15:10:59.771Z,12.46
2023-03-01T15:13:30.072Z,12.30
2023-03-01T15:16:05.980Z,12.45
2023-03-01T15:18:33.449Z,12.50
2023-03-01T15:21:09.472Z,12.49
2023-03-01T15:23:37.766Z,12.50
2023-03-01T15:26:04.737Z,12.38
2023-03-01T15:28:35.124Z,12.39
2023-03-01T15:31:25.005Z,12.35
2023-03-01T15:33:52.514Z,12.07
2023-03-01T15:36:42.886Z,12.02
2023-03-01T15:39:31.761Z,11.93
2023-03-01T15:41:58.511Z,11.98
2023-03-01T15:44:41.595Z,11.97
2023-03-01T15:47:25.807Z,11.90
2023-03-01T15:49:55.672Z,12.04
2023-03-01T15:52:30.396Z,11.83
2023-03-01T15:55:00.418Z,11.95
2023-03-01T15:57:27.224Z,11.75
2023-03-01T15:59:54.037Z,11.69
2023-03-01T16:02:22.117Z,11.69
2023-03-01T16:04:51.642Z,11.64
2023-03-01T16:07:18.505Z,11.38
2023-03-01T16:09:45.163Z,11.42
2023-03-01T16:12:17.395Z,11.32
2023-03-01T16:14:44.354Z,11.19
2023-03-01T16:17:11.290Z,11.24
2023-03-01T16:19:38.902Z,11.11
2023-03-01T16:22:05.776Z,11.23
2023-03-01T16:24:32.490Z,11.28
2023-03-01T16:26:59.122Z,11.22
2023-03-01T16:29:25.812Z,11.24
2023-03-01T16:31:52.574Z,11.16
2023-03-01T16:34:22.703Z,11.13
2023-03-01T16:36:50.107Z,11.15
2023-03-01T16:39:17.667Z,11.03
2023-03-01T16:41:44.512Z,10.77
2023-03-01T16:44:11.278Z,10.92
2023-03-01T16:46:38.255Z,10.77
2023-03-01T16:49:05.032Z,10.77
2023-03-01T16:51:32.454Z,10.75
2023-03-01T16:53:59.239Z,10.69
2023-03-01T16:56:25.951Z,10.60
2023-03-01T16:58:52.582Z,10.51
2023-03-01T17:01:21.262Z,10.46
2023-03-01T17:03:49.569Z,10.55
2023-03-01T17:06:21.115Z,10.46
2023-03-01T17:08:47.921Z,10.42
2023-03-01T17:11:17.203Z,10.26
2023-03-01T17:13:44.934Z,10.27
2023-03-01T17:16:15.319Z,10.27
2023-03-01T17:18:42.425Z,10.21
2023-03-01T17:21:10.347Z,10.07
2023-03-01T17:23:40.049Z,10.08
2023-03-01T17:26:07.590Z,10.01
2023-03-01T17:28:36.339Z,10.04
2023-03-01T17:31:05.424Z,10.03
2023-03-01T17:33:32.890Z,9.90
2023-03-01T17:36:00.435Z,9.91
2023-03-01T17:38:27.740Z,9.84
2023-03-01T17:40:54.607Z,9.82
2023-03-01T17:43:21.579Z,9.81
2023-03-01T17:45:50.576Z,9.73
2023-03-01T17:48:17.341Z,9.72
2023-03-01T17:50:44.124Z,9.71
2023-03-01T17:53:11.705Z,9.67
2023-03-01T17:55:40.519Z,9.72
2023-03-01T17:58:08.750Z,9.70
2023-03-01T18:00:35.574Z,9.63
2023-03-01T18:03:02.988Z,9.61
2023-03-01T18:05:38.037Z,9.52
2023-03-01T18:08:05.316Z,9.53
2023-03-01T18:10:33.314Z,9.50
2023-03-01T18:13:00.022Z,9.38
2023-03-01T18:15:27.357Z,9.37
2023-03-01T18:17:54.009Z,9.31
2023-03-01T18:20:21.001Z,9.24
2023-03-01T18:22:48.838Z,9.24
2023-03-01T18:25:15.595Z,9.24
2023-03-01T18:27:42.348Z,9.19
2023-03-01T18:30:09.786Z,9.12
2023-03-01T18:32:36.538Z,9.04
2023-03-01T18:35:03.467Z,9.08
2023-03-01T18:37:30.217Z,9.04
2023-03-01T18:39:57.110Z,9.06
2023-03-01T18:42:24.339Z,8.98
2023-03-01T18:44:51.481Z,8.97
2023-03-01T18:47:18.150Z,8.93
2023-03-01T18:49:44.783Z,8.85
2023-03-01T18:52:11.666Z,8.86
2023-03-01T18:54:38.379Z,8.83
2023-03-01T18:57:05.106Z,8.78
2023-03-01T18:59:32.453Z,8.74
2023-03-01T19:01:59.258Z,8.75
2023-03-01T19:04:26.879Z,8.71
2023-03-01T19:06:53.998Z,8.63
2023-03-01T19:09:21.045Z,8.66
2023-03-01T19:11:47.793Z,8.62
2023-03-01T19:14:14.449Z,8.51
2023-03-01T19:16:41.249Z,8.60
2023-03-01T19:19:09.921Z,8.56
2023-03-01T19:21:37.084Z,8.60
2023-03-01T19:24:04.487Z,8.55
2023-03-01T19:26:32.294Z,8.46
2023-03-01T19:28:59.714Z,8.44
2023-03-01T19:31:29.308Z,8.30
2023-03-01T19:34:09.870Z,8.21
2023-03-01T19:36:38.241Z,8.21
2023-03-01T19:39:06.761Z,8.16
2023-03-01T19:41:33.930Z,8.17
2023-03-01T19:44:05.727Z,8.09
2023-03-01T19:46:33.976Z,8.11
2023-03-01T19:49:02.933Z,8.08
2023-03-01T19:51:33.157Z,8.12
2023-03-01T19:53:59.941Z,8.15
2023-03-01T19:56:26.709Z,8.14
2023-03-01T19:59:00.174Z,8.14
2023-03-01T20:01:32.823Z,8.00
2023-03-01T20:04:00.475Z,7.94
2023-03-01T20:06:29.745Z,7.99
2023-03-01T20:08:56.626Z,7.94
2023-03-01T20:11:23.356Z,7.86
2023-03-01T20:13:50.034Z,7.88
2023-03-01T20:16:18.574Z,7.88
2023-03-01T20:18:45.618Z,7.79
2023-03-01T20:21:23.654Z,7.84
2023-03-01T20:23:51.272Z,7.85
2023-03-01T20:26:19.778Z,7.82
2023-03-01T20:28:48.393Z,7.76
2023-03-01T20:31:16.960Z,7.74
2023-03-01T20:33:43.694Z,7.63
2023-03-01T20:36:10.604Z,7.54
2023-03-01T20:38:38.139Z,7.53
2023-03-01T20:41:12.651Z,7.61
2023-03-01T20:43:41.586Z,7.52
2023-03-01T20:46:15.032Z,7.50
2023-03-01T20:48:45.130Z,7.49
2023-03-01T20:51:13.582Z,7.46
2023-03-01T20:53:40.936Z,7.44
2023-03-01T20:56:10.985Z,7.49
2023-03-01T20:58:38.684Z,7.25
2023-03-01T21:01:06.370Z,7.40
2023-03-01T21:03:33.982Z,7.43
2023-03-01T21:06:02.844Z,7.39
2023-03-01T21:08:30.554Z,7.32
2023-03-01T21:10:58.561Z,7.37
2023-03-01T21:13:26.862Z,7.32
2023-03-01T21:15:54.290Z,7.29
2023-03-01T21:18:21.591Z,7.36
2023-03-01T21:20:48.659Z,7.30
2023-03-01T21:23:15.415Z,7.25
2023-03-01T21:25:42.450Z,7.20
2023-03-01T21:28:09.159Z,7.19
2023-03-01T21:30:35.901Z,7.22
2023-03-01T21:33:02.583Z,7.10
2023-03-01T21:35:29.252Z,7.09
2023-03-01T21:37:55.944Z,7.06
2023-03-01T21:40:22.558Z,7.10
2023-03-01T21:42:49.666Z,6.97
2023-03-01T21:45:16.410Z,6.87
2023-03-01T21:47:43.233Z,6.87
2023-03-01T21:50:10.660Z,6.93
2023-03-01T21:52:37.324Z,6.92
2023-03-01T21:55:04.304Z,6.81
2023-03-01T21:57:31.008Z,6.81
2023-03-01T21:59:57.892Z,6.79
2023-03-01T22:02:24.595Z,6.84
2023-03-01T22:04:57.463Z,6.80
2023-03-01T22:07:24.210Z,6.70
2023-03-01T22:09:50.994Z,6.70
2023-03-01T22:12:17.646Z,6.69
2023-03-01T22:14:44.319Z,6.64
2023-03-01T22:17:10.960Z,6.66
2023-03-01T22:19:37.679Z,6.64
2023-03-01T22:22:04.349Z,6.65
2023-03-01T22:24:30.997Z,6.66
2023-03-01T22:26:57.732Z,6.57
2023-03-01T22:29:27.621Z,6.51
2023-03-01T22:31:55.895Z,6.56
2023-03-01T22:34:22.904Z,6.56
2023-03-01T22:36:50.335Z,6.55
2023-03-01T22:39:20.228Z,6.47
2023-03-01T22:41:48.431Z,6.49
2023-03-01T22:44:18.350Z,6.46
2023-03-01T22:46:45.149Z,6.47
2023-03-01T22:49:11.926Z,6.38
2023-03-01T22:51:41.292Z,6.42
2023-03-01T22:54:09.577Z,6.47
2023-03-01T22:56:37.569Z,6.44
2023-03-01T22:59:08.669Z,6.45
2023-03-01T23:01:36.961Z,6.46
2023-03-01T23:04:03.949Z,6.42
2023-03-01T23:06:31.667Z,6.40
2023-03-01T23:09:00.585Z,6.45
2023-03-01T23:11:28.499Z,6.35
2023-03-01T23:13:55.861Z,6.34
2023-03-01T23:16:26.253Z,6.32
2023-03-01T23:18:55.818Z,6.28
2023-03-01T23:21:23.013Z,6.28
2023-03-01T23:23:50.302Z,6.21
2023-03-01T23:26:17.834Z,6.20
2023-03-01T23:28:44.759Z,6.19
2023-03-01T23:31:14.456Z,6.19
2023-03-01T23:33:44.303Z,6.21
2023-03-01T23:36:15.651Z,6.18
2023-03-01T23:38:42.838Z,6.14
2023-03-01T23:41:14.475Z,6.15
2023-03-01T23:43:45.643Z,6.14
2023-03-01T23:46:15.196Z,6.11
2023-03-01T23:48:43.560Z,6.12
2023-03-01T23:51:11.635Z,6.08
2023-03-01T23:53:42.714Z,6.07
2023-03-01T23:56:13.326Z,6.04
2023-03-01T23:58:39.984Z,6.02
